sensor_id;sensor_type;location;lat;lon;timestamp;pressure;altitude;pressure_sealevel;temperature;humidity
46682;BME280;34101;53.430;-2.224;2023-01-04T00:00:50;37800.41;;;-148.94;100.00
46682;BME280;34101;53.430;-2.224;2023-01-04T00:03:17;37637.22;;;-148.94;100.00
46682;BME280;34101;53.430;-2.224;2023-01-04T00:05:44;37880.03;;;-148.94;100.00
46682;BME280;34101;53.430;-2.224;2023-01-04T00:08:12;37788.16;;;-148.94;100.00
46682;BME280;34101;53.430;-2.224;2023-01-04T00:10:39;37794.28;;;-148.94;100.00
46682;BME280;34101;53.430;-2.224;2023-01-04T00:13:07;37950.97;;;-148.94;100.00
46682;BME280;34101;53.430;-2.224;2023-01-04T00:15:34;37859.10;;;-148.94;100.00
46682;BME280;34101;53.430;-2.224;2023-01-04T00:18:01;37485.78;;;-148.94;100.00
46682;BME280;34101;53.430;-2.224;2023-01-04T00:20:29;37573.17;;;-148.94;100.00
46682;BME280;34101;53.430;-2.224;2023-01-04T00:22:57;37529.28;;;-148.94;100.00
46682;BME280;34101;53.430;-2.224;2023-01-04T00:25:24;37159.18;;;-148.94;100.00
46682;BME280;34101;53.430;-2.224;2023-01-04T00:27:52;36941.68;;;-148.94;100.00
46682;BME280;34101;53.430;-2.224;2023-01-04T00:30:19;37300.66;;;-148.94;100.00
46682;BME280;34101;53.430;-2.224;2023-01-04T00:32:46;37398.26;;;-148.94;100.00
46682;BME280;34101;53.430;-2.224;2023-01-04T00:35:14;37818.14;;;-148.94;100.00
46682;BME280;34101;53.430;-2.224;2023-01-04T00:37:41;37344.04;;;-148.94;100.00
46682;BME280;34101;53.430;-2.224;2023-01-04T00:40:10;37222.46;;;-148.94;100.00
46682;BME280;34101;53.430;-2.224;2023-01-04T00:42:37;37046.15;;;-148.94;100.00
46682;BME280;34101;53.430;-2.224;2023-01-04T00:45:05;37268.38;;;-148.94;100.00
46682;BME280;34101;53.430;-2.224;2023-01-04T00:47:32;37136.73;;;-148.94;100.00
46682;BME280;34101;53.430;-2.224;2023-01-04T00:50:00;37330.90;;;-148.94;100.00
46682;BME280;34101;53.430;-2.224;2023-01-04T00:52:27;37153.70;;;-148.94;100.00
46682;BME280;34101;53.430;-2.224;2023-01-04T00:54:54;37425.81;;;-148.94;100.00
46682;BME280;34101;53.430;-2.224;2023-01-04T00:57:22;36946.40;;;-148.94;100.00
46682;BME280;34101;53.430;-2.224;2023-01-04T00:59:49;36868.20;;;-148.94;100.00
46682;BME280;34101;53.430;-2.224;2023-01-04T01:02:17;37189.80;;;-148.94;100.00
46682;BME280;34101;53.430;-2.224;2023-01-04T01:04:45;36999.08;;;-148.94;100.00
46682;BME280;34101;53.430;-2.224;2023-01-04T01:07:12;36755.18;;;-148.94;100.00
46682;BME280;34101;53.430;-2.224;2023-01-04T01:09:39;36651.73;;;-148.94;100.00
46682;BME280;34101;53.430;-2.224;2023-01-04T01:12:07;36963.49;;;-148.94;100.00
46682;BME280;34101;53.430;-2.224;2023-01-04T01:14:34;36721.64;;;-148.94;100.00
46682;BME280;34101;53.430;-2.224;2023-01-04T01:17:02;36807.48;;;-148.94;100.00
46682;BME280;34101;53.430;-2.224;2023-01-04T01:19:29;36873.43;;;-148.94;100.00
46682;BME280;34101;53.430;-2.224;2023-01-04T01:21:57;36517.04;;;-148.94;100.00
46682;BME280;34101;53.430;-2.224;2023-01-04T01:24:25;36543.95;;;-148.94;100.00
46682;BME280;34101;53.430;-2.224;2023-01-04T01:26:52;36693.57;;;-148.94;100.00
46682;BME280;34101;53.430;-2.224;2023-01-04T01:29:20;36589.11;;;-148.94;100.00
46682;BME280;34101;53.430;-2.224;2023-01-04T01:31:47;36167.57;;;-148.94;100.00
46682;BME280;34101;53.430;-2.224;2023-01-04T01:34:15;36141.04;;;-148.94;100.00
46682;BME280;34101;53.430;-2.224;2023-01-04T01:36:42;35814.43;;;-148.94;100.00
46682;BME280;34101;53.430;-2.224;2023-01-04T01:39:09;35591.26;;;-148.94;100.00
46682;BME280;34101;53.430;-2.224;2023-01-04T01:41:37;35740.08;;;-148.94;100.00
46682;BME280;34101;53.430;-2.224;2023-01-04T01:44:45;36151.75;;;-148.94;100.00
46682;BME280;34101;53.430;-2.224;2023-01-04T01:47:19;35910.33;;;-148.94;100.00
46682;BME280;34101;53.430;-2.224;2023-01-04T01:49:51;35583.86;;;-148.94;100.00
46682;BME280;34101;53.430;-2.224;2023-01-04T01:52:23;36036.46;;;-148.94;100.00
46682;BME280;34101;53.430;-2.224;2023-01-04T01:54:54;36320.62;;;-148.94;100.00
46682;BME280;34101;53.430;-2.224;2023-01-04T01:57:26;36362.45;;;-148.94;100.00
46682;BME280;34101;53.430;-2.224;2023-01-04T01:59:57;36171.39;;;-148.94;100.00
46682;BME280;34101;53.430;-2.224;2023-01-04T02:02:27;36107.50;;;-148.94;100.00
46682;BME280;34101;53.430;-2.224;2023-01-04T02:04:56;36003.17;;;-148.94;100.00
46682;BME280;34101;53.430;-2.224;2023-01-04T02:07:25;36452.24;;;-148.94;100.00
46682;BME280;34101;53.430;-2.224;2023-01-04T02:09:55;36013.37;;;-148.94;100.00
46682;BME280;34101;53.430;-2.224;2023-01-04T02:12:24;35702.59;;;-148.94;100.00
46682;BME280;34101;53.430;-2.224;2023-01-04T02:14:52;35588.20;;;-148.94;100.00
46682;BME280;34101;53.430;-2.224;2023-01-04T02:17:27;35978.81;;;-148.94;100.00
46682;BME280;34101;53.430;-2.224;2023-01-04T02:20:12;35727.45;;;-148.94;100.00
46682;BME280;34101;53.430;-2.224;2023-01-04T02:25:13;35667.13;;;-148.94;100.00
46682;BME280;34101;53.430;-2.224;2023-01-04T02:27:50;35623.52;;;-148.94;100.00
46682;BME280;34101;53.430;-2.224;2023-01-04T02:31:21;35784.20;;;-148.94;100.00
46682;BME280;34101;53.430;-2.224;2023-01-04T02:33:59;35296.19;;;-148.94;100.00
46682;BME280;34101;53.430;-2.224;2023-01-04T02:36:33;35294.40;;;-148.94;100.00
46682;BME280;34101;53.430;-2.224;2023-01-04T02:39:07;35414.78;;;-148.94;100.00
46682;BME280;34101;53.430;-2.224;2023-01-04T02:41:43;35680.40;;;-148.94;100.00
46682;BME280;34101;53.430;-2.224;2023-01-04T02:44:15;35110.54;;;-148.94;100.00
46682;BME280;34101;53.430;-2.224;2023-01-04T02:46:45;35116.02;;;-148.94;100.00
46682;BME280;34101;53.430;-2.224;2023-01-04T02:49:14;35768.90;;;-148.94;100.00
46682;BME280;34101;53.430;-2.224;2023-01-04T02:51:41;35754.23;;;-148.94;100.00
46682;BME280;34101;53.430;-2.224;2023-01-04T02:54:11;35921.93;;;-148.94;100.00
46682;BME280;34101;53.430;-2.224;2023-01-04T02:56:59;35788.54;;;-148.94;100.00
46682;BME280;34101;53.430;-2.224;2023-01-04T02:59:43;35612.56;;;-148.94;100.00
46682;BME280;34101;53.430;-2.224;2023-01-04T03:02:26;35633.21;;;-148.94;100.00
46682;BME280;34101;53.430;-2.224;2023-01-04T03:05:03;35952.67;;;-148.94;100.00
46682;BME280;34101;53.430;-2.224;2023-01-04T03:07:36;36092.06;;;-148.94;100.00
46682;BME280;34101;53.430;-2.224;2023-01-04T03:10:09;36072.55;;;-148.94;100.00
46682;BME280;34101;53.430;-2.224;2023-01-04T03:12:43;35964.02;;;-148.94;100.00
46682;BME280;34101;53.430;-2.224;2023-01-04T03:15:17;35879.98;;;-148.94;100.00
46682;BME280;34101;53.430;-2.224;2023-01-04T03:17:48;36020.13;;;-148.94;100.00
46682;BME280;34101;53.430;-2.224;2023-01-04T03:20:17;35918.24;;;-148.94;100.00
46682;BME280;34101;53.430;-2.224;2023-01-04T03:22:51;36295.36;;;-148.94;100.00
46682;BME280;34101;53.430;-2.224;2023-01-04T03:25:24;36186.31;;;-148.94;100.00
46682;BME280;34101;53.430;-2.224;2023-01-04T03:27:53;36088.11;;;-148.94;100.00
46682;BME280;34101;53.430;-2.224;2023-01-04T03:30:22;35827.31;;;-148.94;100.00
46682;BME280;34101;53.430;-2.224;2023-01-04T03:32:54;35551.73;;;-148.94;100.00
46682;BME280;34101;53.430;-2.224;2023-01-04T03:35:26;35622.37;;;-148.94;100.00
46682;BME280;34101;53.430;-2.224;2023-01-04T03:38:00;35515.90;;;-148.94;100.00
46682;BME280;34101;53.430;-2.224;2023-01-04T03:40:32;35744.29;;;-148.94;100.00
46682;BME280;34101;53.430;-2.224;2023-01-04T03:43:04;37091.19;;;-148.94;100.00
46682;BME280;34101;53.430;-2.224;2023-01-04T03:45:38;36774.44;;;-148.94;100.00
46682;BME280;34101;53.430;-2.224;2023-01-04T03:48:13;36900.47;;;-148.94;100.00
46682;BME280;34101;53.430;-2.224;2023-01-04T03:50:46;36468.06;;;-148.94;100.00
46682;BME280;34101;53.430;-2.224;2023-01-04T03:53:14;36563.72;;;-148.94;100.00
46682;BME280;34101;53.430;-2.224;2023-01-04T03:55:42;36252.25;;;-148.94;100.00
46682;BME280;34101;53.430;-2.224;2023-01-04T03:58:10;36359.26;;;-148.94;100.00
46682;BME280;34101;53.430;-2.224;2023-01-04T04:00:38;36112.21;;;-148.94;100.00
46682;BME280;34101;53.430;-2.224;2023-01-04T04:03:07;35930.35;;;-148.94;100.00
46682;BME280;34101;53.430;-2.224;2023-01-04T04:05:37;35975.75;;;-148.94;100.00
46682;BME280;34101;53.430;-2.224;2023-01-04T04:08:05;36140.15;;;-148.94;100.00
46682;BME280;34101;53.430;-2.224;2023-01-04T04:10:32;36065.79;;;-148.94;100.00
46682;BME280;34101;53.430;-2.224;2023-01-04T04:12:59;36083.26;;;-148.94;100.00
46682;BME280;34101;53.430;-2.224;2023-01-04T04:15:28;35981.62;;;-148.94;100.00
46682;BME280;34101;53.430;-2.224;2023-01-04T04:17:55;35935.32;;;-148.94;100.00
46682;BME280;34101;53.430;-2.224;2023-01-04T04:20:22;36218.20;;;-148.94;100.00
46682;BME280;34101;53.430;-2.224;2023-01-04T04:22:50;36038.63;;;-148.94;100.00
46682;BME280;34101;53.430;-2.224;2023-01-04T04:25:17;35971.29;;;-148.94;100.00
46682;BME280;34101;53.430;-2.224;2023-01-04T04:27:45;36417.17;;;-148.94;100.00
46682;BME280;34101;53.430;-2.224;2023-01-04T04:30:12;36120.63;;;-148.94;100.00
46682;BME280;34101;53.430;-2.224;2023-01-04T04:32:41;36590.51;;;-148.94;100.00
46682;BME280;34101;53.430;-2.224;2023-01-04T04:35:08;36734.90;;;-148.94;100.00
46682;BME280;34101;53.430;-2.224;2023-01-04T04:37:35;36963.11;;;-148.94;100.00
46682;BME280;34101;53.430;-2.224;2023-01-04T04:40:03;37282.29;;;-148.94;100.00
46682;BME280;34101;53.430;-2.224;2023-01-04T04:42:40;37235.72;;;-148.94;100.00
46682;BME280;34101;53.430;-2.224;2023-01-04T04:45:09;37808.06;;;-148.94;100.00
46682;BME280;34101;53.430;-2.224;2023-01-04T04:47:36;38069.13;;;-148.94;100.00
46682;BME280;34101;53.430;-2.224;2023-01-04T04:50:04;38275.84;;;-148.94;100.00
46682;BME280;34101;53.430;-2.224;2023-01-04T04:52:32;38559.40;;;-148.94;100.00
46682;BME280;34101;53.430;-2.224;2023-01-04T04:54:59;38806.47;;;-148.94;100.00
46682;BME280;34101;53.430;-2.224;2023-01-04T04:57:27;38629.72;;;-148.94;100.00
46682;BME280;34101;53.430;-2.224;2023-01-04T04:59:54;38380.74;;;-148.94;100.00
46682;BME280;34101;53.430;-2.224;2023-01-04T05:02:21;38188.18;;;-148.94;100.00
46682;BME280;34101;53.430;-2.224;2023-01-04T05:04:48;38557.10;;;-148.94;100.00
46682;BME280;34101;53.430;-2.224;2023-01-04T05:07:17;38169.68;;;-148.94;100.00
46682;BME280;34101;53.430;-2.224;2023-01-04T05:09:44;38263.98;;;-148.94;100.00
46682;BME280;34101;53.430;-2.224;2023-01-04T05:12:12;38252.24;;;-148.94;100.00
46682;BME280;34101;53.430;-2.224;2023-01-04T05:14:39;38756.32;;;-148.94;100.00
46682;BME280;34101;53.430;-2.224;2023-01-04T05:17:06;38134.46;;;-148.94;100.00
46682;BME280;34101;53.430;-2.224;2023-01-04T05:19:34;38450.16;;;-148.94;100.00
46682;BME280;34101;53.430;-2.224;2023-01-04T05:22:01;38029.70;;;-148.94;100.00
46682;BME280;34101;53.430;-2.224;2023-01-04T05:24:29;37907.33;;;-148.94;100.00
46682;BME280;34101;53.430;-2.224;2023-01-04T05:26:56;38318.98;;;-148.94;100.00
46682;BME280;34101;53.430;-2.224;2023-01-04T05:29:24;37992.69;;;-148.94;100.00
46682;BME280;34101;53.430;-2.224;2023-01-04T05:31:51;37694.25;;;-148.94;100.00
46682;BME280;34101;53.430;-2.224;2023-01-04T05:34:19;37897.89;;;-148.94;100.00
46682;BME280;34101;53.430;-2.224;2023-01-04T05:36:46;38256.70;;;-148.94;100.00
46682;BME280;34101;53.430;-2.224;2023-01-04T05:39:13;38486.40;;;-148.94;100.00
46682;BME280;34101;53.430;-2.224;2023-01-04T05:41:41;38495.08;;;-148.94;100.00
46682;BME280;34101;53.430;-2.224;2023-01-04T05:44:08;38236.29;;;-148.94;100.00
46682;BME280;34101;53.430;-2.224;2023-01-04T05:46:35;38291.41;;;-148.94;100.00
46682;BME280;34101;53.430;-2.224;2023-01-04T05:49:03;38075.89;;;-148.94;100.00
46682;BME280;34101;53.430;-2.224;2023-01-04T05:51:31;38433.31;;;-148.94;100.00
46682;BME280;34101;53.430;-2.224;2023-01-04T05:53:58;38917.63;;;-148.94;100.00
46682;BME280;34101;53.430;-2.224;2023-01-04T05:56:25;38790.39;;;-148.94;100.00
46682;BME280;34101;53.430;-2.224;2023-01-04T05:58:53;38871.94;;;-148.94;100.00
46682;BME280;34101;53.430;-2.224;2023-01-04T06:01:20;38850.25;;;-148.94;100.00
46682;BME280;34101;53.430;-2.224;2023-01-04T06:03:47;39081.77;;;-148.94;100.00
46682;BME280;34101;53.430;-2.224;2023-01-04T06:06:15;38770.74;;;-148.94;100.00
46682;BME280;34101;53.430;-2.224;2023-01-04T06:08:42;38475.30;;;-148.94;100.00
46682;BME280;34101;53.430;-2.224;2023-01-04T06:11:09;38456.54;;;-148.94;100.00
46682;BME280;34101;53.430;-2.224;2023-01-04T06:13:37;37954.41;;;-148.94;100.00
46682;BME280;34101;53.430;-2.224;2023-01-04T06:16:05;38212.81;;;-148.94;100.00
46682;BME280;34101;53.430;-2.224;2023-01-04T06:18:32;38329.06;;;-148.94;100.00
46682;BME280;34101;53.430;-2.224;2023-01-04T06:20:59;38225.57;;;-148.94;100.00
46682;BME280;34101;53.430;-2.224;2023-01-04T06:23:28;37819.80;;;-148.94;100.00
46682;BME280;34101;53.430;-2.224;2023-01-04T06:25:55;37438.95;;;-148.94;100.00
46682;BME280;34101;53.430;-2.224;2023-01-04T06:28:22;37926.73;;;-148.94;100.00
46682;BME280;34101;53.430;-2.224;2023-01-04T06:30:50;37876.58;;;-148.94;100.00
46682;BME280;34101;53.430;-2.224;2023-01-04T06:33:17;37462.43;;;-148.94;100.00
46682;BME280;34101;53.430;-2.224;2023-01-04T06:35:53;37890.62;;;-148.94;100.00
46682;BME280;34101;53.430;-2.224;2023-01-04T06:38:20;37693.36;;;-148.94;100.00
46682;BME280;34101;53.430;-2.224;2023-01-04T06:40:48;37443.93;;;-148.94;100.00
46682;BME280;34101;53.430;-2.224;2023-01-04T06:43:15;37432.45;;;-148.94;100.00
46682;BME280;34101;53.430;-2.224;2023-01-04T06:45:42;37805.77;;;-148.94;100.00
46682;BME280;34101;53.430;-2.224;2023-01-04T06:48:10;37637.60;;;-148.94;100.00
46682;BME280;34101;53.430;-2.224;2023-01-04T06:50:37;37072.05;;;-148.94;100.00
46682;BME280;34101;53.430;-2.224;2023-01-04T06:53:04;37862.67;;;-148.94;100.00
46682;BME280;34101;53.430;-2.224;2023-01-04T06:55:32;37591.42;;;-148.94;100.00
46682;BME280;34101;53.430;-2.224;2023-01-04T06:57:59;38174.65;;;-148.94;100.00
46682;BME280;34101;53.430;-2.224;2023-01-04T07:00:28;38248.03;;;-148.94;100.00
46682;BME280;34101;53.430;-2.224;2023-01-04T07:02:56;38113.91;;;-148.94;100.00
46682;BME280;34101;53.430;-2.224;2023-01-04T07:05:23;37963.47;;;-148.94;100.00
46682;BME280;34101;53.430;-2.224;2023-01-04T07:07:50;37916.77;;;-148.94;100.00
46682;BME280;34101;53.430;-2.224;2023-01-04T07:10:18;38406.90;;;-148.94;100.00
46682;BME280;34101;53.430;-2.224;2023-01-04T07:12:45;38300.34;;;-148.94;100.00
46682;BME280;34101;53.430;-2.224;2023-01-04T07:15:12;38224.67;;;-148.94;100.00
46682;BME280;34101;53.430;-2.224;2023-01-04T07:17:40;38612.49;;;-148.94;100.00
46682;BME280;34101;53.430;-2.224;2023-01-04T07:20:08;38147.22;;;-148.94;100.00
46682;BME280;34101;53.430;-2.224;2023-01-04T07:22:35;38204.13;;;-148.94;100.00
46682;BME280;34101;53.430;-2.224;2023-01-04T07:25:03;38067.59;;;-148.94;100.00
46682;BME280;34101;53.430;-2.224;2023-01-04T07:27:31;38451.44;;;-148.94;100.00
46682;BME280;34101;53.430;-2.224;2023-01-04T07:29:58;38691.99;;;-148.94;100.00
46682;BME280;34101;53.430;-2.224;2023-01-04T07:32:25;38785.54;;;-148.94;100.00
46682;BME280;34101;53.430;-2.224;2023-01-04T07:34:53;38541.91;;;-148.94;100.00
46682;BME280;34101;53.430;-2.224;2023-01-04T07:37:20;38319.87;;;-148.94;100.00
46682;BME280;34101;53.430;-2.224;2023-01-04T07:39:48;38654.09;;;-148.94;100.00
46682;BME280;34101;53.430;-2.224;2023-01-04T07:42:15;38486.27;;;-148.94;100.00
46682;BME280;34101;53.430;-2.224;2023-01-04T07:44:42;38495.46;;;-148.94;100.00
46682;BME280;34101;53.430;-2.224;2023-01-04T07:47:10;38476.07;;;-148.94;100.00
46682;BME280;34101;53.430;-2.224;2023-01-04T07:49:37;38365.55;;;-148.94;100.00
46682;BME280;34101;53.430;-2.224;2023-01-04T07:52:04;38498.65;;;-148.94;100.00
46682;BME280;34101;53.430;-2.224;2023-01-04T07:54:32;38540.13;;;-148.94;100.00
46682;BME280;34101;53.430;-2.224;2023-01-04T07:56:59;38630.23;;;-148.94;100.00
46682;BME280;34101;53.430;-2.224;2023-01-04T07:59:27;38731.05;;;-148.94;100.00
46682;BME280;34101;53.430;-2.224;2023-01-04T08:01:54;38332.88;;;-148.94;100.00
46682;BME280;34101;53.430;-2.224;2023-01-04T08:04:23;38414.17;;;-148.94;100.00
46682;BME280;34101;53.430;-2.224;2023-01-04T08:06:51;38540.38;;;-148.94;100.00
46682;BME280;34101;53.430;-2.224;2023-01-04T08:09:18;38466.11;;;-148.94;100.00
46682;BME280;34101;53.430;-2.224;2023-01-04T08:11:45;38776.99;;;-148.94;100.00
46682;BME280;34101;53.430;-2.224;2023-01-04T08:14:13;38511.41;;;-148.94;100.00
46682;BME280;34101;53.430;-2.224;2023-01-04T08:16:41;38655.37;;;-148.94;100.00
46682;BME280;34101;53.430;-2.224;2023-01-04T08:19:12;38504.78;;;-148.94;100.00
46682;BME280;34101;53.430;-2.224;2023-01-04T08:21:40;38399.63;;;-148.94;100.00
46682;BME280;34101;53.430;-2.224;2023-01-04T08:24:08;38392.86;;;-148.94;100.00
46682;BME280;34101;53.430;-2.224;2023-01-04T08:26:37;38456.92;;;-148.94;100.00
46682;BME280;34101;53.430;-2.224;2023-01-04T08:29:04;38169.80;;;-148.94;100.00
46682;BME280;34101;53.430;-2.224;2023-01-04T08:31:32;38626.01;;;-148.94;100.00
46682;BME280;34101;53.430;-2.224;2023-01-04T08:34:02;38540.00;;;-148.94;100.00
46682;BME280;34101;53.430;-2.224;2023-01-04T08:36:32;38478.36;;;-148.94;100.00
46682;BME280;34101;53.430;-2.224;2023-01-04T08:39:01;38599.47;;;-148.94;100.00
46682;BME280;34101;53.430;-2.224;2023-01-04T08:41:30;38762.95;;;-148.94;100.00
46682;BME280;34101;53.430;-2.224;2023-01-04T08:43:58;38874.88;;;-148.94;100.00
46682;BME280;34101;53.430;-2.224;2023-01-04T08:46:25;38518.05;;;-148.94;100.00
46682;BME280;34101;53.430;-2.224;2023-01-04T08:48:52;38719.56;;;-148.94;100.00
46682;BME280;34101;53.430;-2.224;2023-01-04T08:51:19;38993.19;;;-148.94;100.00
46682;BME280;34101;53.430;-2.224;2023-01-04T08:53:46;39787.26;;;-148.94;100.00
46682;BME280;34101;53.430;-2.224;2023-01-04T08:56:14;40420.87;;;-148.94;100.00
46682;BME280;34101;53.430;-2.224;2023-01-04T08:58:41;40814.65;;;-148.94;100.00
46682;BME280;34101;53.430;-2.224;2023-01-04T09:01:10;40542.04;;;-148.94;100.00
46682;BME280;34101;53.430;-2.224;2023-01-04T09:03:38;40709.05;;;-148.94;100.00
46682;BME280;34101;53.430;-2.224;2023-01-04T09:06:08;40616.23;;;-148.94;100.00
46682;BME280;34101;53.430;-2.224;2023-01-04T09:08:36;40291.41;;;-148.94;100.00
46682;BME280;34101;53.430;-2.224;2023-01-04T09:11:04;39969.18;;;-148.94;100.00
46682;BME280;34101;53.430;-2.224;2023-01-04T09:13:33;39540.89;;;-148.94;100.00
46682;BME280;34101;53.430;-2.224;2023-01-04T09:16:01;39455.37;;;-148.94;100.00
46682;BME280;34101;53.430;-2.224;2023-01-04T09:18:29;39752.80;;;-148.94;100.00
46682;BME280;34101;53.430;-2.224;2023-01-04T09:20:56;39680.93;;;-148.94;100.00
46682;BME280;34101;53.430;-2.224;2023-01-04T09:23:24;40142.55;;;-148.94;100.00
46682;BME280;34101;53.430;-2.224;2023-01-04T09:25:51;39471.20;;;-148.94;100.00
46682;BME280;34101;53.430;-2.224;2023-01-04T09:28:18;39811.26;;;-148.94;100.00
46682;BME280;34101;53.430;-2.224;2023-01-04T09:30:46;39688.97;;;-148.94;100.00
46682;BME280;34101;53.430;-2.224;2023-01-04T09:33:12;39682.33;;;-148.94;100.00
46682;BME280;34101;53.430;-2.224;2023-01-04T09:35:40;39616.46;;;-148.94;100.00
46682;BME280;34101;53.430;-2.224;2023-01-04T09:38:08;39696.88;;;-148.94;100.00
46682;BME280;34101;53.430;-2.224;2023-01-04T09:40:46;39801.56;;;-148.94;100.00
46682;BME280;34101;53.430;-2.224;2023-01-04T09:43:18;39874.07;;;-148.94;100.00
46682;BME280;34101;53.430;-2.224;2023-01-04T09:45:47;39655.65;;;-148.94;100.00
46682;BME280;34101;53.430;-2.224;2023-01-04T09:48:18;39587.10;;;-148.94;100.00
46682;BME280;34101;53.430;-2.224;2023-01-04T09:50:50;39606.00;;;-148.94;100.00
46682;BME280;34101;53.430;-2.224;2023-01-04T09:53:22;39425.63;;;-148.94;100.00
46682;BME280;34101;53.430;-2.224;2023-01-04T09:55:52;39591.83;;;-148.94;100.00
46682;BME280;34101;53.430;-2.224;2023-01-04T09:58:25;39427.16;;;-148.94;100.00
46682;BME280;34101;53.430;-2.224;2023-01-04T10:01:04;38921.21;;;-148.94;100.00
46682;BME280;34101;53.430;-2.224;2023-01-04T10:03:34;39605.48;;;-148.94;100.00
46682;BME280;34101;53.430;-2.224;2023-01-04T10:06:03;39435.59;;;-148.94;100.00
46682;BME280;34101;53.430;-2.224;2023-01-04T10:08:32;39260.59;;;-148.94;100.00
46682;BME280;34101;53.430;-2.224;2023-01-04T10:11:10;39305.52;;;-148.94;100.00
46682;BME280;34101;53.430;-2.224;2023-01-04T10:13:50;39128.61;;;-148.94;100.00
46682;BME280;34101;53.430;-2.224;2023-01-04T10:16:35;39039.27;;;-148.94;100.00
46682;BME280;34101;53.430;-2.224;2023-01-04T10:19:19;38590.03;;;-148.94;100.00
46682;BME280;34101;53.430;-2.224;2023-01-04T10:21:52;38585.82;;;-148.94;100.00
46682;BME280;34101;53.430;-2.224;2023-01-04T10:24:34;38687.78;;;-148.94;100.00
46682;BME280;34101;53.430;-2.224;2023-01-04T10:27:11;39016.29;;;-148.94;100.00
46682;BME280;34101;53.430;-2.224;2023-01-04T10:29:50;38987.96;;;-148.94;100.00
46682;BME280;34101;53.430;-2.224;2023-01-04T10:32:28;38851.78;;;-148.94;100.00
46682;BME280;34101;53.430;-2.224;2023-01-04T10:34:57;38876.41;;;-148.94;100.00
46682;BME280;34101;53.430;-2.224;2023-01-04T10:37:29;38717.14;;;-148.94;100.00
46682;BME280;34101;53.430;-2.224;2023-01-04T10:39:58;38168.27;;;-148.94;100.00
46682;BME280;34101;53.430;-2.224;2023-01-04T10:42:31;38654.47;;;-148.94;100.00
46682;BME280;34101;53.430;-2.224;2023-01-04T10:45:07;38538.72;;;-148.94;100.00
46682;BME280;34101;53.430;-2.224;2023-01-04T10:47:44;38234.12;;;-148.94;100.00
46682;BME280;34101;53.430;-2.224;2023-01-04T10:50:19;38210.51;;;-148.94;100.00
46682;BME280;34101;53.430;-2.224;2023-01-04T10:52:52;38064.28;;;-148.94;100.00
46682;BME280;34101;53.430;-2.224;2023-01-04T10:55:28;37535.53;;;-148.94;100.00
46682;BME280;34101;53.430;-2.224;2023-01-04T10:58:00;37070.90;;;-148.94;100.00
46682;BME280;34101;53.430;-2.224;2023-01-04T11:00:32;37273.74;;;-148.94;100.00
46682;BME280;34101;53.430;-2.224;2023-01-04T11:03:05;37161.86;;;-148.94;100.00
46682;BME280;34101;53.430;-2.224;2023-01-04T11:05:38;37611.96;;;-148.94;100.00
46682;BME280;34101;53.430;-2.224;2023-01-04T11:08:11;37973.30;;;-148.94;100.00
46682;BME280;34101;53.430;-2.224;2023-01-04T11:10:43;37776.67;;;-148.94;100.00
46682;BME280;34101;53.430;-2.224;2023-01-04T11:13:14;37831.03;;;-148.94;100.00
46682;BME280;34101;53.430;-2.224;2023-01-04T11:15:41;37924.81;;;-148.94;100.00
46682;BME280;34101;53.430;-2.224;2023-01-04T11:18:10;38036.84;;;-148.94;100.00
46682;BME280;34101;53.430;-2.224;2023-01-04T11:20:38;38316.68;;;-148.94;100.00
46682;BME280;34101;53.430;-2.224;2023-01-04T11:23:07;38125.27;;;-148.94;100.00
46682;BME280;34101;53.430;-2.224;2023-01-04T11:25:39;38169.42;;;-148.94;100.00
46682;BME280;34101;53.430;-2.224;2023-01-04T11:28:14;38277.38;;;-148.94;100.00
46682;BME280;34101;53.430;-2.224;2023-01-04T11:30:50;38485.00;;;-148.94;100.00
46682;BME280;34101;53.430;-2.224;2023-01-04T11:33:21;38652.94;;;-148.94;100.00
46682;BME280;34101;53.430;-2.224;2023-01-04T11:35:51;38002.26;;;-148.94;100.00
46682;BME280;34101;53.430;-2.224;2023-01-04T11:38:20;38610.83;;;-148.94;100.00
46682;BME280;34101;53.430;-2.224;2023-01-04T11:40:59;38549.06;;;-148.94;100.00
46682;BME280;34101;53.430;-2.224;2023-01-04T11:43:29;38741.89;;;-148.94;100.00
46682;BME280;34101;53.430;-2.224;2023-01-04T11:46:00;38704.76;;;-148.94;100.00
46682;BME280;34101;53.430;-2.224;2023-01-04T11:48:34;38385.33;;;-148.94;100.00
46682;BME280;34101;53.430;-2.224;2023-01-04T11:51:02;37308.57;;;-148.94;100.00
46682;BME280;34101;53.430;-2.224;2023-01-04T11:53:31;36412.96;;;-148.94;100.00
46682;BME280;34101;53.430;-2.224;2023-01-04T11:56:10;36627.12;;;-148.94;100.00
46682;BME280;34101;53.430;-2.224;2023-01-04T11:58:38;36692.43;;;-148.94;100.00
46682;BME280;34101;53.430;-2.224;2023-01-04T12:01:19;36135.04;;;-148.94;100.00
46682;BME280;34101;53.430;-2.224;2023-01-04T12:03:47;36519.34;;;-148.94;100.00
46682;BME280;34101;53.430;-2.224;2023-01-04T12:06:18;35972.31;;;-148.94;100.00
46682;BME280;34101;53.430;-2.224;2023-01-04T12:08:47;35788.54;;;-148.94;100.00
46682;BME280;34101;53.430;-2.224;2023-01-04T12:11:21;35453.41;;;-148.94;100.00
46682;BME280;34101;53.430;-2.224;2023-01-04T12:13:50;34216.83;;;-148.94;100.00
46682;BME280;34101;53.430;-2.224;2023-01-04T12:16:25;33407.95;;;-148.94;100.00
46682;BME280;34101;53.430;-2.224;2023-01-04T12:18:55;33449.37;;;-148.94;100.00
46682;BME280;34101;53.430;-2.224;2023-01-04T12:21:24;32900.48;;;-148.94;100.00
46682;BME280;34101;53.430;-2.224;2023-01-04T12:23:53;33441.34;;;-148.94;100.00
46682;BME280;34101;53.430;-2.224;2023-01-04T12:26:21;33529.92;;;-148.94;100.00
46682;BME280;34101;53.430;-2.224;2023-01-04T12:28:49;32809.50;;;-148.94;100.00
46682;BME280;34101;53.430;-2.224;2023-01-04T12:31:33;33417.38;;;-148.94;100.00
46682;BME280;34101;53.430;-2.224;2023-01-04T12:36:14;33386.92;;;-148.94;100.00
46682;BME280;34101;53.430;-2.224;2023-01-04T12:39:00;33397.25;;;-148.94;100.00